sensor_id;sensor_type;location;lat;lon;timestamp;pressure;altitude;pressure_sealevel;temperature;humidity
19761;BME280;10039;42.632;23.408;2023-03-13T00:01:01;95257.03;;;2.49;60.59
19761;BME280;10039;42.632;23.408;2023-03-13T00:03:27;95252.59;;;2.53;60.64
19761;BME280;10039;42.632;23.408;2023-03-13T00:05:56;95249.06;;;2.45;60.60
19761;BME280;10039;42.632;23.408;2023-03-13T00:08:23;95234.75;;;2.20;60.87
19761;BME280;10039;42.632;23.408;2023-03-13T00:10:48;95253.81;;;2.36;60.76
19761;BME280;10039;42.632;23.408;2023-03-13T00:13:13;95255.69;;;2.36;61.02
19761;BME280;10039;42.632;23.408;2023-03-13T00:15:39;95248.56;;;2.36;60.93
19761;BME280;10039;42.632;23.408;2023-03-13T00:18:04;95259.50;;;2.38;61.02
19761;BME280;10039;42.632;23.408;2023-03-13T00:20:30;95246.38;;;2.42;60.96
19761;BME280;10039;42.632;23.408;2023-03-13T00:22:55;95218.94;;;2.20;60.49
19761;BME280;10039;42.632;23.408;2023-03-13T00:25:20;95253.06;;;2.36;60.83
19761;BME280;10039;42.632;23.408;2023-03-13T00:27:46;95251.81;;;2.30;60.57
19761;BME280;10039;42.632;23.408;2023-03-13T00:30:12;95224.97;;;1.99;60.99
19761;BME280;10039;42.632;23.408;2023-03-13T00:32:44;95263.47;;;2.29;61.05
19761;BME280;10039;42.632;23.408;2023-03-13T00:35:13;95251.09;;;2.11;61.19
19761;BME280;10039;42.632;23.408;2023-03-13T00:37:39;95273.81;;;2.18;61.45
19761;BME280;10039;42.632;23.408;2023-03-13T00:40:05;95221.47;;;1.91;60.77
19761;BME280;10039;42.632;23.408;2023-03-13T00:42:32;95277.63;;;2.21;61.60
19761;BME280;10039;42.632;23.408;2023-03-13T00:44:57;95274.00;;;2.29;61.18
19761;BME280;10039;42.632;23.408;2023-03-13T00:47:23;95257.84;;;2.08;61.28
19761;BME280;10039;42.632;23.408;2023-03-13T00:49:49;95270.16;;;2.23;61.06
19761;BME280;10039;42.632;23.408;2023-03-13T00:52:14;95271.59;;;2.20;61.29
19761;BME280;10039;42.632;23.408;2023-03-13T00:54:40;95251.47;;;2.09;61.23
19761;BME280;10039;42.632;23.408;2023-03-13T00:57:05;95263.47;;;2.07;61.71
19761;BME280;10039;42.632;23.408;2023-03-13T00:59:31;95254.25;;;1.97;61.62
19761;BME280;10039;42.632;23.408;2023-03-13T01:01:56;95274.13;;;1.95;61.71
19761;BME280;10039;42.632;23.408;2023-03-13T01:04:21;95262.91;;;1.98;61.91
19761;BME280;10039;42.632;23.408;2023-03-13T01:06:47;95252.63;;;1.89;62.50
19761;BME280;10039;42.632;23.408;2023-03-13T01:09:14;95279.53;;;2.02;62.16
19761;BME280;10039;42.632;23.408;2023-03-13T01:11:41;95278.00;;;1.82;62.60
19761;BME280;10039;42.632;23.408;2023-03-13T01:14:12;95250.06;;;1.74;62.36
19761;BME280;10039;42.632;23.408;2023-03-13T01:16:37;95272.59;;;1.94;62.49
19761;BME280;10039;42.632;23.408;2023-03-13T01:19:13;95270.00;;;1.75;62.22
19761;BME280;10039;42.632;23.408;2023-03-13T01:21:40;95280.38;;;1.68;62.99
19761;BME280;10039;42.632;23.408;2023-03-13T01:24:06;95271.25;;;1.62;63.37
19761;BME280;10039;42.632;23.408;2023-03-13T01:26:31;95270.69;;;1.53;63.38
19761;BME280;10039;42.632;23.408;2023-03-13T01:28:57;95261.34;;;1.55;63.29
19761;BME280;10039;42.632;23.408;2023-03-13T01:31:28;95271.25;;;1.62;63.54
19761;BME280;10039;42.632;23.408;2023-03-13T01:33:58;95273.50;;;1.63;63.47
19761;BME280;10039;42.632;23.408;2023-03-13T01:36:25;95267.94;;;1.65;62.88
19761;BME280;10039;42.632;23.408;2023-03-13T01:38:53;95278.59;;;1.72;62.90
19761;BME280;10039;42.632;23.408;2023-03-13T01:41:21;95288.41;;;1.75;62.76
19761;BME280;10039;42.632;23.408;2023-03-13T01:43:47;95280.13;;;1.73;62.82
19761;BME280;10039;42.632;23.408;2023-03-13T01:46:47;95275.66;;;1.77;62.66
19761;BME280;10039;42.632;23.408;2023-03-13T01:49:11;95288.81;;;1.77;62.56
19761;BME280;10039;42.632;23.408;2023-03-13T01:51:41;95286.34;;;1.65;62.69
19761;BME280;10039;42.632;23.408;2023-03-13T01:54:18;95295.81;;;1.69;62.85
19761;BME280;10039;42.632;23.408;2023-03-13T01:56:48;95288.59;;;1.66;63.03
19761;BME280;10039;42.632;23.408;2023-03-13T01:59:19;95281.19;;;1.53;63.17
19761;BME280;10039;42.632;23.408;2023-03-13T02:01:47;95291.44;;;1.58;63.19
19761;BME280;10039;42.632;23.408;2023-03-13T02:04:15;95271.63;;;1.45;63.39
19761;BME280;10039;42.632;23.408;2023-03-13T02:06:42;95295.84;;;1.35;63.66
19761;BME280;10039;42.632;23.408;2023-03-13T02:09:12;95292.28;;;1.43;63.61
19761;BME280;10039;42.632;23.408;2023-03-13T02:11:46;95295.31;;;1.45;63.54
19761;BME280;10039;42.632;23.408;2023-03-13T02:14:12;95295.19;;;1.38;64.00
19761;BME280;10039;42.632;23.408;2023-03-13T02:16:38;95272.84;;;1.13;63.83
19761;BME280;10039;42.632;23.408;2023-03-13T02:22:01;95291.88;;;1.41;63.93
19761;BME280;10039;42.632;23.408;2023-03-13T02:24:45;95298.69;;;1.26;64.01
19761;BME280;10039;42.632;23.408;2023-03-13T02:27:14;95304.16;;;1.37;63.79
19761;BME280;10039;42.632;23.408;2023-03-13T02:29:40;95303.31;;;1.33;63.54
19761;BME280;10039;42.632;23.408;2023-03-13T02:32:06;95297.50;;;1.24;63.64
19761;BME280;10039;42.632;23.408;2023-03-13T02:34:34;95308.22;;;1.34;63.72
19761;BME280;10039;42.632;23.408;2023-03-13T02:37:03;95307.31;;;1.27;63.46
19761;BME280;10039;42.632;23.408;2023-03-13T02:39:32;95302.75;;;1.24;63.31
19761;BME280;10039;42.632;23.408;2023-03-13T02:42:00;95326.13;;;1.29;63.94
19761;BME280;10039;42.632;23.408;2023-03-13T02:44:27;95332.28;;;1.17;64.08
19761;BME280;10039;42.632;23.408;2023-03-13T02:46:52;95336.50;;;1.22;64.15
19761;BME280;10039;42.632;23.408;2023-03-13T02:49:27;95336.00;;;1.16;64.05
19761;BME280;10039;42.632;23.408;2023-03-13T02:52:37;95345.91;;;1.08;64.41
19761;BME280;10039;42.632;23.408;2023-03-13T02:54:44;95361.78;;;0.96;64.97
19761;BME280;10039;42.632;23.408;2023-03-13T02:57:11;95359.41;;;1.06;64.82
19761;BME280;10039;42.632;23.408;2023-03-13T02:59:37;95364.13;;;1.16;64.22
19761;BME280;10039;42.632;23.408;2023-03-13T03:02:03;95367.84;;;1.15;64.24
19761;BME280;10039;42.632;23.408;2023-03-13T03:04:29;95365.81;;;1.24;64.15
19761;BME280;10039;42.632;23.408;2023-03-13T03:06:54;95355.75;;;1.45;63.49
19761;BME280;10039;42.632;23.408;2023-03-13T03:09:21;95330.94;;;1.42;63.11
19761;BME280;10039;42.632;23.408;2023-03-13T03:11:47;95350.00;;;1.74;62.58
19761;BME280;10039;42.632;23.408;2023-03-13T03:14:12;95361.22;;;1.71;61.82
19761;BME280;10039;42.632;23.408;2023-03-13T03:16:38;95364.69;;;1.75;62.03
19761;BME280;10039;42.632;23.408;2023-03-13T03:19:04;95359.13;;;1.61;62.30
19761;BME280;10039;42.632;23.408;2023-03-13T03:21:31;95370.84;;;1.48;63.02
19761;BME280;10039;42.632;23.408;2023-03-13T03:23:56;95373.19;;;1.68;62.61
19761;BME280;10039;42.632;23.408;2023-03-13T03:26:22;95385.09;;;1.81;62.27
19761;BME280;10039;42.632;23.408;2023-03-13T03:28:47;95381.00;;;1.84;62.11
19761;BME280;10039;42.632;23.408;2023-03-13T03:31:14;95393.03;;;1.66;62.51
19761;BME280;10039;42.632;23.408;2023-03-13T03:33:40;95398.59;;;1.45;63.22
19761;BME280;10039;42.632;23.408;2023-03-13T03:36:11;95406.81;;;1.44;63.52
19761;BME280;10039;42.632;23.408;2023-03-13T03:38:38;95405.63;;;1.41;63.48
19761;BME280;10039;42.632;23.408;2023-03-13T03:41:05;95412.09;;;1.13;64.13
19761;BME280;10039;42.632;23.408;2023-03-13T03:43:30;95404.16;;;0.94;64.32
19761;BME280;10039;42.632;23.408;2023-03-13T03:45:56;95407.19;;;0.96;64.95
19761;BME280;10039;42.632;23.408;2023-03-13T03:48:22;95412.44;;;0.96;64.99
19761;BME280;10039;42.632;23.408;2023-03-13T03:50:47;95424.22;;;0.87;65.49
19761;BME280;10039;42.632;23.408;2023-03-13T03:53:13;95426.84;;;0.71;65.45
19761;BME280;10039;42.632;23.408;2023-03-13T03:55:38;95414.81;;;0.70;65.75
19761;BME280;10039;42.632;23.408;2023-03-13T03:58:04;95396.66;;;0.65;65.56
19761;BME280;10039;42.632;23.408;2023-03-13T04:00:29;95438.53;;;0.89;65.13
19761;BME280;10039;42.632;23.408;2023-03-13T04:02:54;95415.47;;;0.67;64.83
19761;BME280;10039;42.632;23.408;2023-03-13T04:05:21;95443.28;;;0.99;65.02
19761;BME280;10039;42.632;23.408;2023-03-13T04:07:46;95445.75;;;1.08;64.51
19761;BME280;10039;42.632;23.408;2023-03-13T04:10:12;95453.31;;;1.09;64.49
19761;BME280;10039;42.632;23.408;2023-03-13T04:12:39;95447.28;;;0.93;64.87
19761;BME280;10039;42.632;23.408;2023-03-13T04:15:05;95443.28;;;0.99;64.48
19761;BME280;10039;42.632;23.408;2023-03-13T04:17:30;95456.84;;;0.86;64.66
19761;BME280;10039;42.632;23.408;2023-03-13T04:19:56;95470.28;;;0.84;65.06
19761;BME280;10039;42.632;23.408;2023-03-13T04:22:21;95450.34;;;0.68;64.68
19761;BME280;10039;42.632;23.408;2023-03-13T04:24:47;95460.13;;;0.83;64.58
19761;BME280;10039;42.632;23.408;2023-03-13T04:27:12;95460.81;;;0.80;64.63
19761;BME280;10039;42.632;23.408;2023-03-13T04:29:38;95457.44;;;0.79;64.85
19761;BME280;10039;42.632;23.408;2023-03-13T04:32:03;95468.41;;;0.69;64.58
19761;BME280;10039;42.632;23.408;2023-03-13T04:34:29;95459.19;;;0.75;64.39
19761;BME280;10039;42.632;23.408;2023-03-13T04:36:54;95468.44;;;0.85;64.55
19761;BME280;10039;42.632;23.408;2023-03-13T04:39:20;95476.97;;;0.66;64.69
19761;BME280;10039;42.632;23.408;2023-03-13T04:41:53;95489.34;;;0.81;64.62
19761;BME280;10039;42.632;23.408;2023-03-13T04:44:19;95484.41;;;0.64;65.05
19761;BME280;10039;42.632;23.408;2023-03-13T04:46:45;95510.69;;;0.52;65.18
19761;BME280;10039;42.632;23.408;2023-03-13T04:49:10;95483.44;;;0.29;65.66
19761;BME280;10039;42.632;23.408;2023-03-13T04:51:36;95503.47;;;0.49;65.40
19761;BME280;10039;42.632;23.408;2023-03-13T04:54:01;95482.44;;;0.34;65.10
19761;BME280;10039;42.632;23.408;2023-03-13T04:56:27;95509.78;;;0.60;65.05
19761;BME280;10039;42.632;23.408;2023-03-13T04:58:53;95521.81;;;0.61;65.18
19761;BME280;10039;42.632;23.408;2023-03-13T05:01:18;95509.38;;;0.58;64.77
19761;BME280;10039;42.632;23.408;2023-03-13T05:03:44;95518.03;;;0.59;64.74
19761;BME280;10039;42.632;23.408;2023-03-13T05:06:10;95508.22;;;0.44;64.88
19761;BME280;10039;42.632;23.408;2023-03-13T05:08:36;95510.91;;;0.59;65.05
19761;BME280;10039;42.632;23.408;2023-03-13T05:11:02;95508.28;;;0.59;64.75
19761;BME280;10039;42.632;23.408;2023-03-13T05:13:28;95519.84;;;0.70;64.94
19761;BME280;10039;42.632;23.408;2023-03-13T05:15:53;95530.38;;;0.58;64.65
19761;BME280;10039;42.632;23.408;2023-03-13T05:18:19;95516.97;;;0.75;64.58
19761;BME280;10039;42.632;23.408;2023-03-13T05:20:44;95521.06;;;0.88;64.73
19761;BME280;10039;42.632;23.408;2023-03-13T05:23:09;95510.94;;;0.75;64.62
19761;BME280;10039;42.632;23.408;2023-03-13T05:25:35;95520.19;;;0.84;64.43
19761;BME280;10039;42.632;23.408;2023-03-13T05:28:00;95502.25;;;0.86;63.96
19761;BME280;10039;42.632;23.408;2023-03-13T05:30:26;95533.56;;;1.07;63.78
19761;BME280;10039;42.632;23.408;2023-03-13T05:32:52;95534.50;;;1.14;63.69
19761;BME280;10039;42.632;23.408;2023-03-13T05:35:17;95538.59;;;1.27;63.44
19761;BME280;10039;42.632;23.408;2023-03-13T05:37:43;95543.16;;;1.30;63.37
19761;BME280;10039;42.632;23.408;2023-03-13T05:40:10;95542.56;;;1.36;63.46
19761;BME280;10039;42.632;23.408;2023-03-13T05:42:36;95531.06;;;1.41;62.97
19761;BME280;10039;42.632;23.408;2023-03-13T05:45:02;95554.56;;;1.65;62.52
19761;BME280;10039;42.632;23.408;2023-03-13T05:47:27;95546.84;;;1.56;62.89
19761;BME280;10039;42.632;23.408;2023-03-13T05:49:53;95556.41;;;1.64;62.85
19761;BME280;10039;42.632;23.408;2023-03-13T05:52:18;95507.91;;;1.46;62.39
19761;BME280;10039;42.632;23.408;2023-03-13T05:57:28;95565.06;;;1.96;62.29
19761;BME280;10039;42.632;23.408;2023-03-13T05:59:53;95554.28;;;2.01;61.68
19761;BME280;10039;42.632;23.408;2023-03-13T06:02:19;95558.16;;;2.22;61.81
19761;BME280;10039;42.632;23.408;2023-03-13T06:04:45;95561.69;;;2.29;61.48
19761;BME280;10039;42.632;23.408;2023-03-13T06:07:11;95569.63;;;2.48;60.58
19761;BME280;10039;42.632;23.408;2023-03-13T06:09:36;95562.00;;;2.43;60.58
19761;BME280;10039;42.632;23.408;2023-03-13T06:12:02;95563.56;;;2.63;60.05
19761;BME280;10039;42.632;23.408;2023-03-13T06:14:27;95534.44;;;2.56;59.70
19761;BME280;10039;42.632;23.408;2023-03-13T06:16:54;95575.97;;;3.01;58.92
19761;BME280;10039;42.632;23.408;2023-03-13T06:19:19;95567.00;;;3.24;59.40
19761;BME280;10039;42.632;23.408;2023-03-13T06:21:46;95557.59;;;3.04;57.58
19761;BME280;10039;42.632;23.408;2023-03-13T06:24:12;95555.50;;;3.13;58.62
19761;BME280;10039;42.632;23.408;2023-03-13T06:26:37;95541.34;;;3.21;57.89
19761;BME280;10039;42.632;23.408;2023-03-13T06:29:02;95571.13;;;3.44;58.84
19761;BME280;10039;42.632;23.408;2023-03-13T06:31:33;95550.84;;;3.48;58.38
19761;BME280;10039;42.632;23.408;2023-03-13T06:33:58;95577.06;;;4.05;57.61
19761;BME280;10039;42.632;23.408;2023-03-13T06:36:24;95559.94;;;3.95;56.89
19761;BME280;10039;42.632;23.408;2023-03-13T06:38:50;95580.34;;;4.21;57.41
19761;BME280;10039;42.632;23.408;2023-03-13T06:41:15;95572.59;;;4.35;57.08
19761;BME280;10039;42.632;23.408;2023-03-13T06:43:41;95556.19;;;4.48;56.91
19761;BME280;10039;42.632;23.408;2023-03-13T06:46:07;95522.22;;;4.46;55.61
19761;BME280;10039;42.632;23.408;2023-03-13T06:48:35;95545.53;;;4.70;55.69
19761;BME280;10039;42.632;23.408;2023-03-13T06:51:00;95541.38;;;4.99;54.14
19761;BME280;10039;42.632;23.408;2023-03-13T06:53:26;95551.91;;;4.66;52.84
19761;BME280;10039;42.632;23.408;2023-03-13T06:55:52;95510.50;;;4.44;54.69
19761;BME280;10039;42.632;23.408;2023-03-13T06:58:17;95543.16;;;4.91;54.37
19761;BME280;10039;42.632;23.408;2023-03-13T07:00:43;95552.34;;;5.01;52.83
19761;BME280;10039;42.632;23.408;2023-03-13T07:03:12;95548.00;;;5.19;54.47
19761;BME280;10039;42.632;23.408;2023-03-13T07:05:38;95546.03;;;5.45;53.25
19761;BME280;10039;42.632;23.408;2023-03-13T07:08:04;95531.16;;;5.34;54.31
19761;BME280;10039;42.632;23.408;2023-03-13T07:10:30;95537.94;;;5.71;52.45
19761;BME280;10039;42.632;23.408;2023-03-13T07:12:55;95548.84;;;5.66;50.20
19761;BME280;10039;42.632;23.408;2023-03-13T07:15:22;95524.22;;;5.62;52.30
19761;BME280;10039;42.632;23.408;2023-03-13T07:17:48;95542.28;;;5.86;52.56
19761;BME280;10039;42.632;23.408;2023-03-13T07:20:16;95534.47;;;6.07;52.17
19761;BME280;10039;42.632;23.408;2023-03-13T07:22:41;95543.69;;;6.27;51.60
19761;BME280;10039;42.632;23.408;2023-03-13T07:25:07;95552.59;;;6.55;51.91
19761;BME280;10039;42.632;23.408;2023-03-13T07:27:33;95541.72;;;6.77;50.55
19761;BME280;10039;42.632;23.408;2023-03-13T07:29:59;95529.47;;;6.56;49.94
19761;BME280;10039;42.632;23.408;2023-03-13T07:32:24;95547.81;;;6.85;49.32
19761;BME280;10039;42.632;23.408;2023-03-13T07:34:50;95525.78;;;6.70;48.59
19761;BME280;10039;42.632;23.408;2023-03-13T07:37:16;95523.16;;;6.77;49.50
19761;BME280;10039;42.632;23.408;2023-03-13T07:39:42;95541.84;;;7.05;49.82
19761;BME280;10039;42.632;23.408;2023-03-13T07:42:11;95539.50;;;6.93;51.14
19761;BME280;10039;42.632;23.408;2023-03-13T07:44:36;95531.25;;;7.19;50.06
19761;BME280;10039;42.632;23.408;2023-03-13T07:47:02;95533.97;;;7.33;49.89
19761;BME280;10039;42.632;23.408;2023-03-13T07:49:27;95540.88;;;7.69;50.06
19761;BME280;10039;42.632;23.408;2023-03-13T07:51:53;95541.63;;;7.97;49.21
19761;BME280;10039;42.632;23.408;2023-03-13T07:54:19;95537.44;;;7.86;48.87
19761;BME280;10039;42.632;23.408;2023-03-13T07:56:44;95531.00;;;7.73;48.92
19761;BME280;10039;42.632;23.408;2023-03-13T07:59:09;95536.69;;;7.68;47.94
19761;BME280;10039;42.632;23.408;2023-03-13T08:01:35;95535.53;;;7.55;48.43
19761;BME280;10039;42.632;23.408;2023-03-13T08:04:01;95526.06;;;7.75;50.88
19761;BME280;10039;42.632;23.408;2023-03-13T08:06:28;95521.53;;;8.00;48.50
19761;BME280;10039;42.632;23.408;2023-03-13T08:08:56;95525.34;;;8.16;48.42
19761;BME280;10039;42.632;23.408;2023-03-13T08:11:24;95519.25;;;7.95;47.97
19761;BME280;10039;42.632;23.408;2023-03-13T08:13:50;95513.56;;;8.21;49.39
19761;BME280;10039;42.632;23.408;2023-03-13T08:16:24;95506.69;;;8.51;47.73
19761;BME280;10039;42.632;23.408;2023-03-13T08:18:54;95514.69;;;8.30;47.25
19761;BME280;10039;42.632;23.408;2023-03-13T08:21:23;95509.31;;;8.55;48.71
19761;BME280;10039;42.632;23.408;2023-03-13T08:23:52;95495.16;;;8.86;47.60
19761;BME280;10039;42.632;23.408;2023-03-13T08:26:20;95506.13;;;9.01;45.78
19761;BME280;10039;42.632;23.408;2023-03-13T08:28:50;95503.09;;;8.99;45.51
19761;BME280;10039;42.632;23.408;2023-03-13T08:31:18;95501.25;;;8.83;46.27
19761;BME280;10039;42.632;23.408;2023-03-13T08:33:45;95510.75;;;8.84;47.56
19761;BME280;10039;42.632;23.408;2023-03-13T08:36:22;95507.34;;;8.83;46.70
19761;BME280;10039;42.632;23.408;2023-03-13T08:38:50;95517.53;;;9.05;46.54
19761;BME280;10039;42.632;23.408;2023-03-13T08:41:22;95519.41;;;9.05;46.40
19761;BME280;10039;42.632;23.408;2023-03-13T08:43:47;95525.94;;;8.93;46.37
19761;BME280;10039;42.632;23.408;2023-03-13T08:46:14;95522.06;;;9.08;45.54
19761;BME280;10039;42.632;23.408;2023-03-13T08:48:40;95523.66;;;8.88;46.19
19761;BME280;10039;42.632;23.408;2023-03-13T08:51:13;95515.75;;;8.68;45.58
19761;BME280;10039;42.632;23.408;2023-03-13T08:53:42;95524.50;;;8.72;45.79
19761;BME280;10039;42.632;23.408;2023-03-13T08:56:10;95505.53;;;8.56;46.90
19761;BME280;10039;42.632;23.408;2023-03-13T08:58:36;95501.22;;;8.89;47.37
19761;BME280;10039;42.632;23.408;2023-03-13T09:01:09;95506.72;;;9.33;46.79
19761;BME280;10039;42.632;23.408;2023-03-13T09:03:35;95504.84;;;9.30;46.28
19761;BME280;10039;42.632;23.408;2023-03-13T09:06:01;95505.19;;;9.36;46.13
19761;BME280;10039;42.632;23.408;2023-03-13T09:08:28;95506.34;;;9.35;46.33
19761;BME280;10039;42.632;23.408;2023-03-13T09:10:59;95506.25;;;9.45;46.01
19761;BME280;10039;42.632;23.408;2023-03-13T09:13:26;95494.50;;;9.43;44.82
19761;BME280;10039;42.632;23.408;2023-03-13T09:16:00;95496.38;;;9.42;45.38
19761;BME280;10039;42.632;23.408;2023-03-13T09:18:26;95499.97;;;9.15;44.78
19761;BME280;10039;42.632;23.408;2023-03-13T09:20:51;95476.84;;;9.01;45.29
19761;BME280;10039;42.632;23.408;2023-03-13T09:23:18;95505.72;;;9.06;46.11
19761;BME280;10039;42.632;23.408;2023-03-13T09:25:43;95489.47;;;8.87;45.83
19761;BME280;10039;42.632;23.408;2023-03-13T09:28:09;95446.59;;;8.68;46.10
19761;BME280;10039;42.632;23.408;2023-03-13T09:30:34;95492.06;;;8.97;45.85
19761;BME280;10039;42.632;23.408;2023-03-13T09:32:59;95495.56;;;8.81;45.68
19761;BME280;10039;42.632;23.408;2023-03-13T09:35:25;95495.66;;;8.56;45.13
19761;BME280;10039;42.632;23.408;2023-03-13T09:37:50;95498.28;;;8.63;47.01
19761;BME280;10039;42.632;23.408;2023-03-13T09:40:18;95487.97;;;8.72;47.01
19761;BME280;10039;42.632;23.408;2023-03-13T09:42:48;95505.13;;;8.68;45.68
19761;BME280;10039;42.632;23.408;2023-03-13T09:45:26;95495.22;;;8.61;46.34
19761;BME280;10039;42.632;23.408;2023-03-13T09:48:10;95498.34;;;8.39;45.57
19761;BME280;10039;42.632;23.408;2023-03-13T09:50:44;95487.72;;;8.11;46.74
19761;BME280;10039;42.632;23.408;2023-03-13T09:53:19;95485.44;;;8.09;47.23
19761;BME280;10039;42.632;23.408;2023-03-13T09:55:50;95483.53;;;8.38;47.28
19761;BME280;10039;42.632;23.408;2023-03-13T09:58:20;95471.38;;;8.44;46.57
19761;BME280;10039;42.632;23.408;2023-03-13T10:01:03;95500.53;;;8.72;46.84
19761;BME280;10039;42.632;23.408;2023-03-13T10:03:39;95485.28;;;8.83;47.37
19761;BME280;10039;42.632;23.408;2023-03-13T10:06:18;95483.38;;;8.87;46.51
19761;BME280;10039;42.632;23.408;2023-03-13T10:08:44;95475.78;;;8.82;46.13
19761;BME280;10039;42.632;23.408;2023-03-13T10:13:59;95482.66;;;8.76;44.76
19761;BME280;10039;42.632;23.408;2023-03-13T10:16:48;95472.41;;;8.74;45.46
19761;BME280;10039;42.632;23.408;2023-03-13T10:19:17;95462.59;;;8.54;45.77
19761;BME280;10039;42.632;23.408;2023-03-13T10:21:46;95449.34;;;8.40;47.18
19761;BME280;10039;42.632;23.408;2023-03-13T10:27:14;95448.09;;;8.76;45.75
19761;BME280;10039;42.632;23.408;2023-03-13T10:29:40;95412.75;;;8.72;46.07
19761;BME280;10039;42.632;23.408;2023-03-13T10:32:07;95426.75;;;8.83;46.43
19761;BME280;10039;42.632;23.408;2023-03-13T10:34:54;95431.59;;;9.01;47.44
19761;BME280;10039;42.632;23.408;2023-03-13T10:37:25;95433.41;;;9.11;47.27
19761;BME280;10039;42.632;23.408;2023-03-13T10:42:42;95428.28;;;9.45;45.65
19761;BME280;10039;42.632;23.408;2023-03-13T10:45:17;95421.91;;;9.28;46.45
19761;BME280;10039;42.632;23.408;2023-03-13T10:47:43;95416.22;;;9.26;46.11
19761;BME280;10039;42.632;23.408;2023-03-13T10:50:32;95411.00;;;9.09;45.70
19761;BME280;10039;42.632;23.408;2023-03-13T10:53:09;95400.28;;;9.19;47.10
19761;BME280;10039;42.632;23.408;2023-03-13T10:55:43;95396.44;;;9.27;46.22
19761;BME280;10039;42.632;23.408;2023-03-13T10:58:26;95407.03;;;9.34;45.48
19761;BME280;10039;42.632;23.408;2023-03-13T11:01:09;95397.84;;;9.42;45.62
19761;BME280;10039;42.632;23.408;2023-03-13T11:03:38;95401.81;;;9.24;45.03
19761;BME280;10039;42.632;23.408;2023-03-13T11:06:03;95390.78;;;9.22;46.41
19761;BME280;10039;42.632;23.408;2023-03-13T11:08:36;95390.81;;;9.11;45.46
19761;BME280;10039;42.632;23.408;2023-03-13T11:11:04;95387.00;;;9.16;45.64
19761;BME280;10039;42.632;23.408;2023-03-13T11:16:22;95376.66;;;9.28;45.56
19761;BME280;10039;42.632;23.408;2023-03-13T11:30:14;95309.19;;;8.94;46.81
19761;BME280;10039;42.632;23.408;2023-03-13T11:32:51;95361.41;;;9.32;45.87
19761;BME280;10039;42.632;23.408;2023-03-13T11:38:35;95349.00;;;9.12;45.06
19761;BME280;10039;42.632;23.408;2023-03-13T11:44:22;95342.13;;;9.18;45.02
19761;BME280;10039;42.632;23.408;2023-03-13T11:50:14;95327.25;;;9.20;46.32
19761;BME280;10039;42.632;23.408;2023-03-13T11:52:54;95302.88;;;9.25;44.66
19761;BME280;10039;42.632;23.408;2023-03-13T11:55:48;95300.94;;;9.29;44.52
19761;BME280;10039;42.632;23.408;2023-03-13T11:58:29;95308.25;;;9.22;45.35
19761;BME280;10039;42.632;23.408;2023-03-13T12:01:07;95267.41;;;8.91;45.77
19761;BME280;10039;42.632;23.408;2023-03-13T12:03:59;95307.72;;;9.37;45.10
19761;BME280;10039;42.632;23.408;2023-03-13T12:06:35;95304.53;;;9.49;45.31
19761;BME280;10039;42.632;23.408;2023-03-13T12:11:32;95285.16;;;9.49;45.25
19761;BME280;10039;42.632;23.408;2023-03-13T12:14:03;95291.59;;;9.51;44.64
19761;BME280;10039;42.632;23.408;2023-03-13T12:16:51;95285.53;;;9.51;44.00
19761;BME280;10039;42.632;23.408;2023-03-13T12:19:25;95278.63;;;9.53;44.91
19761;BME280;10039;42.632;23.408;2023-03-13T12:21:56;95267.69;;;9.44;44.38
19761;BME280;10039;42.632;23.408;2023-03-13T12:24:33;95276.25;;;9.62;44.84
19761;BME280;10039;42.632;23.408;2023-03-13T12:27:09;95270.16;;;9.65;44.24
19761;BME280;10039;42.632;23.408;2023-03-13T12:32:24;95271.97;;;9.72;44.75
19761;BME280;10039;42.632;23.408;2023-03-13T12:40:25;95261.25;;;9.75;43.98
19761;BME280;10039;42.632;23.408;2023-03-13T12:43:03;95259.69;;;9.81;42.91
19761;BME280;10039;42.632;23.408;2023-03-13T12:45:31;95247.88;;;9.82;43.64
19761;BME280;10039;42.632;23.408;2023-03-13T12:50:57;95252.63;;;9.98;43.45
19761;BME280;10039;42.632;23.408;2023-03-13T12:56:42;95255.72;;;9.93;43.81
19761;BME280;10039;42.632;23.408;2023-03-13T12:59:15;95257.56;;;9.99;43.88
19761;BME280;10039;42.632;23.408;2023-03-13T13:01:50;95252.94;;;10.06;43.38
19761;BME280;10039;42.632;23.408;2023-03-13T13:04:23;95251.06;;;10.03;43.41
19761;BME280;10039;42.632;23.408;2023-03-13T13:07:02;95258.28;;;10.06;42.53
19761;BME280;10039;42.632;23.408;2023-03-13T13:09:36;95260.16;;;10.06;42.73
19761;BME280;10039;42.632;23.408;2023-03-13T13:12:24;95261.94;;;10.16;43.07
19761;BME280;10039;42.632;23.408;2023-03-13T13:17:33;95262.16;;;10.28;42.09
19761;BME280;10039;42.632;23.408;2023-03-13T13:22:49;95254.94;;;10.29;42.22
19761;BME280;10039;42.632;23.408;2023-03-13T13:35:32;95244.50;;;10.38;41.10
19761;BME280;10039;42.632;23.408;2023-03-13T13:43:23;95237.97;;;10.69;40.82
19761;BME280;10039;42.632;23.408;2023-03-13T13:46:29;95235.59;;;10.74;40.99
19761;BME280;10039;42.632;23.408;2023-03-13T13:54:02;95233.44;;;10.66;40.86
19761;BME280;10039;42.632;23.408;2023-03-13T14:01:28;95221.66;;;10.86;40.73
19761;BME280;10039;42.632;23.408;2023-03-13T14:04:03;95218.59;;;10.88;40.38
19761;BME280;10039;42.632;23.408;2023-03-13T14:06:34;95227.53;;;11.01;39.79
19761;BME280;10039;42.632;23.408;2023-03-13T14:09:15;95219.66;;;10.94;39.82
19761;BME280;10039;42.632;23.408;2023-03-13T14:11:45;95229.19;;;10.95;40.05
19761;BME280;10039;42.632;23.408;2023-03-13T14:14:17;95223.69;;;11.02;40.75
19761;BME280;10039;42.632;23.408;2023-03-13T14:16:48;95217.56;;;11.05;39.88
19761;BME280;10039;42.632;23.408;2023-03-13T14:21:50;95216.41;;;11.28;40.23
19761;BME280;10039;42.632;23.408;2023-03-13T14:24:21;95199.09;;;11.13;40.51
19761;BME280;10039;42.632;23.408;2023-03-13T14:26:46;95208.78;;;11.27;40.50
19761;BME280;10039;42.632;23.408;2023-03-13T14:29:17;95204.78;;;11.15;39.64
19761;BME280;10039;42.632;23.408;2023-03-13T14:31:56;95210.34;;;11.24;39.32
19761;BME280;10039;42.632;23.408;2023-03-13T14:34:22;95220.22;;;11.27;40.17
19761;BME280;10039;42.632;23.408;2023-03-13T14:42:08;95202.41;;;11.40;40.36